Independence of the Seas — C6WW4 — position and weather

sailwx.info

Track history (hours):
 
Tides and Currents Weather Stations Pressure Air Temp Water Temp Dewpoint Dewpoint Depression Visibility Wind Speed Wind Dir Waves Ship Positions

Independence of the Seas

Last reported at 2017-Nov-24 04:23 UTC. Time now 2017-Nov-25 04:07 UTC.
Position N 25°07' W 080°04'.

Length 339 m; draft 8.8 m.

Type: Passenger vessel. MMSI: 309374000.

Date/timePositionNaut miles runAvg speedWind from/ knotsBaromVisibWave heightAir tempDewpointWater temp
2017-Nov-24 04:23N 25°07' W 080°04'510.9
2017-Nov-24 03:55N 25°11' W 080°01'510.9
2017-Nov-24 03:30N 25°15' W 079°59'510.6
2017-Nov-24 03:00N 25°20' W 079°57'510.8
2017-Nov-24 02:30N 25°25' W 079°54'510.6
2017-Nov-24 02:00N 25°29' W 079°51'510.4
2017-Nov-24 01:30N 25°35' W 079°50'510.4
2017-Nov-24 01:00N 25°40' W 079°50'510.2
2017-Nov-24 00:30N 25°45' W 079°50'5 9.9
2017-Nov-24 00:00N 25°50' W 079°51'510.3
2017-Nov-23 23:30N 25°54' W 079°54'611.0
2017-Nov-23 23:00N 25°58' W 079°58'611.2
2017-Nov-23 22:30N 26°03' W 080°01'5 9.9
2017-Nov-23 22:00N 26°06' W 080°06'1 2.5
2017-Nov-23 21:30N 26°05' W 080°07'0 0.0
2017-Nov-23 21:00N 26°05' W 080°07'0 0.0
2017-Nov-23 20:30N 26°05' W 080°07'0 0.0
2017-Nov-23 20:00N 26°05' W 080°07'0 0.0
2017-Nov-23 19:30N 26°05' W 080°07'0 0.0
2017-Nov-23 19:00N 26°05' W 080°07'0 0.0
2017-Nov-23 18:21N 26°05' W 080°07'0 0.0
2017-Nov-23 17:54N 26°05' W 080°07'0 0.0
2017-Nov-23 17:24N 26°05' W 080°07'0 0.0
2017-Nov-23 16:54N 26°05' W 080°07'0 0.0
2017-Nov-23 16:24N 26°05' W 080°07'0 0.0
2017-Nov-23 15:54N 26°05' W 080°07'0 0.0
2017-Nov-23 15:24N 26°05' W 080°07'0 0.0
2017-Nov-23 14:57N 26°05' W 080°07'0 0.0
2017-Nov-23 14:24N 26°05' W 080°07'0 0.0
2017-Nov-23 13:57N 26°05' W 080°07'0 0.0
2017-Nov-23 13:27N 26°05' W 080°07'0 0.0
2017-Nov-23 12:57N 26°05' W 080°07'0 0.0
2017-Nov-23 12:27N 26°05' W 080°07'0 0.0
2017-Nov-23 12:00N 26°05' W 080°07'0 0.0
2017-Nov-23 11:30N 26°05' W 080°07'0 0.0
2017-Nov-23 11:00N 26°05' W 080°07'1 1.3
2017-Nov-23 10:30N 26°06' W 080°07'4 7.8
2017-Nov-23 10:01N 26°06' W 080°03'612.8
2017-Nov-23 09:30N 25°60' W 079°60'714.9
2017-Nov-23 09:00N 25°52' W 079°59'815.5
2017-Nov-23 08:30N 25°45' W 079°59'815.8
2017-Nov-23 08:00N 25°37' W 079°58'816.1
2017-Nov-23 07:30N 25°29' W 079°58'  
2017-Nov-19 00:38N 25°32' W 079°59'215.0
2017-Nov-19 00:30N 25°34' W 079°59'815.1
2017-Nov-19 00:01N 25°42' W 079°59'815.2
2017-Nov-18 23:30N 25°49' W 079°59'815.8
2017-Nov-18 23:00N 25°57' W 080°01'815.1
2017-Nov-18 22:30N 26°04' W 080°04'3 5.0
2017-Nov-18 22:00N 26°05' W 080°07'0 0.5
2017-Nov-18 21:27N 26°05' W 080°07'0 0.0
2017-Nov-18 21:00N 26°05' W 080°07'0 0.0
2017-Nov-18 20:30N 26°05' W 080°07'0 0.0
2017-Nov-18 19:58N 26°05' W 080°07'0 0.0
2017-Nov-18 19:28N 26°05' W 080°07'0 0.0
2017-Nov-18 18:58N 26°05' W 080°07'0 0.0
2017-Nov-18 18:16N 26°05' W 080°07'0 0.0
2017-Nov-18 17:46N 26°05' W 080°07'0 0.0
2017-Nov-18 17:28N 26°05' W 080°07'0 0.0
2017-Nov-18 16:58N 26°05' W 080°07'0 0.0
2017-Nov-18 16:28N 26°05' W 080°07'0 0.0
2017-Nov-18 15:49N 26°05' W 080°07'0 0.0
2017-Nov-18 15:19N 26°05' W 080°07'0 0.0
2017-Nov-18 14:49N 26°05' W 080°07'0 0.0
2017-Nov-18 14:22N 26°05' W 080°07'0 0.0
2017-Nov-18 13:49N 26°05' W 080°07'0 0.0
2017-Nov-18 13:22N 26°05' W 080°07'0 0.0
2017-Nov-18 12:52N 26°05' W 080°07'0 0.0
2017-Nov-18 12:19N 26°05' W 080°07'0 0.0
2017-Nov-18 11:52N 26°05' W 080°07'0 0.0
2017-Nov-18 11:25N 26°05' W 080°07'0 0.0
2017-Nov-18 10:52N 26°05' W 080°07'1 1.9
2017-Nov-18 10:30N 26°06' W 080°07'4 8.4
2017-Nov-18 10:00N 26°05' W 080°02'816.1
2017-Nov-18 09:30N 25°57' W 079°60'816.0
2017-Nov-18 09:00N 25°49' W 079°59'918.0
2017-Nov-18 08:30N 25°41' W 079°57'1018.9
2017-Nov-18 08:00N 25°31' W 079°56'  
Track history (hours):
 
Tides and Currents Weather Stations Pressure Air Temp Water Temp Dewpoint Dewpoint Depression Visibility Wind Speed Wind Dir Waves Ship Positions

Independence of the Seas

Last reported at 2017-Nov-24 04:23 UTC. Time now 2017-Nov-25 04:07 UTC.
Position N 25°07' W 080°04'.

Length 339 m; draft 8.8 m.

Type: Passenger vessel. MMSI: 309374000.

Date/timePositionNaut miles runAvg speedWind from/ knotsBaromVisibWave heightAir tempDewpointWater temp
2017-Nov-24 04:23N 25°07' W 080°04'510.9
2017-Nov-24 03:55N 25°11' W 080°01'510.9
2017-Nov-24 03:30N 25°15' W 079°59'510.6
2017-Nov-24 03:00N 25°20' W 079°57'510.8
2017-Nov-24 02:30N 25°25' W 079°54'510.6
2017-Nov-24 02:00N 25°29' W 079°51'510.4
2017-Nov-24 01:30N 25°35' W 079°50'510.4
2017-Nov-24 01:00N 25°40' W 079°50'510.2
2017-Nov-24 00:30N 25°45' W 079°50'5 9.9
2017-Nov-24 00:00N 25°50' W 079°51'510.3
2017-Nov-23 23:30N 25°54' W 079°54'611.0
2017-Nov-23 23:00N 25°58' W 079°58'611.2
2017-Nov-23 22:30N 26°03' W 080°01'5 9.9
2017-Nov-23 22:00N 26°06' W 080°06'1 2.5
2017-Nov-23 21:30N 26°05' W 080°07'0 0.0
2017-Nov-23 21:00N 26°05' W 080°07'0 0.0
2017-Nov-23 20:30N 26°05' W 080°07'0 0.0
2017-Nov-23 20:00N 26°05' W 080°07'0 0.0
2017-Nov-23 19:30N 26°05' W 080°07'0 0.0
2017-Nov-23 19:00N 26°05' W 080°07'0 0.0
2017-Nov-23 18:21N 26°05' W 080°07'0 0.0
2017-Nov-23 17:54N 26°05' W 080°07'0 0.0
2017-Nov-23 17:24N 26°05' W 080°07'0 0.0
2017-Nov-23 16:54N 26°05' W 080°07'0 0.0
2017-Nov-23 16:24N 26°05' W 080°07'0 0.0
2017-Nov-23 15:54N 26°05' W 080°07'0 0.0
2017-Nov-23 15:24N 26°05' W 080°07'0 0.0
2017-Nov-23 14:57N 26°05' W 080°07'0 0.0
2017-Nov-23 14:24N 26°05' W 080°07'0 0.0
2017-Nov-23 13:57N 26°05' W 080°07'0 0.0
2017-Nov-23 13:27N 26°05' W 080°07'0 0.0
2017-Nov-23 12:57N 26°05' W 080°07'0 0.0
2017-Nov-23 12:27N 26°05' W 080°07'0 0.0
2017-Nov-23 12:00N 26°05' W 080°07'0 0.0
2017-Nov-23 11:30N 26°05' W 080°07'0 0.0
2017-Nov-23 11:00N 26°05' W 080°07'1 1.3
2017-Nov-23 10:30N 26°06' W 080°07'4 7.8
2017-Nov-23 10:01N 26°06' W 080°03'612.8
2017-Nov-23 09:30N 25°60' W 079°60'714.9
2017-Nov-23 09:00N 25°52' W 079°59'815.5
2017-Nov-23 08:30N 25°45' W 079°59'815.8
2017-Nov-23 08:00N 25°37' W 079°58'816.1
2017-Nov-23 07:30N 25°29' W 079°58'  
2017-Nov-19 00:38N 25°32' W 079°59'215.0
2017-Nov-19 00:30N 25°34' W 079°59'815.1
2017-Nov-19 00:01N 25°42' W 079°59'815.2
2017-Nov-18 23:30N 25°49' W 079°59'815.8
2017-Nov-18 23:00N 25°57' W 080°01'815.1
2017-Nov-18 22:30N 26°04' W 080°04'3 5.0
2017-Nov-18 22:00N 26°05' W 080°07'0 0.5
2017-Nov-18 21:27N 26°05' W 080°07'0 0.0
2017-Nov-18 21:00N 26°05' W 080°07'0 0.0
2017-Nov-18 20:30N 26°05' W 080°07'0 0.0
2017-Nov-18 19:58N 26°05' W 080°07'0 0.0
2017-Nov-18 19:28N 26°05' W 080°07'0 0.0
2017-Nov-18 18:58N 26°05' W 080°07'0 0.0
2017-Nov-18 18:16N 26°05' W 080°07'0 0.0
2017-Nov-18 17:46N 26°05' W 080°07'0 0.0
2017-Nov-18 17:28N 26°05' W 080°07'0 0.0
2017-Nov-18 16:58N 26°05' W 080°07'0 0.0
2017-Nov-18 16:28N 26°05' W 080°07'0 0.0
2017-Nov-18 15:49N 26°05' W 080°07'0 0.0
2017-Nov-18 15:19N 26°05' W 080°07'0 0.0
2017-Nov-18 14:49N 26°05' W 080°07'0 0.0
2017-Nov-18 14:22N 26°05' W 080°07'0 0.0
2017-Nov-18 13:49N 26°05' W 080°07'0 0.0
2017-Nov-18 13:22N 26°05' W 080°07'0 0.0
2017-Nov-18 12:52N 26°05' W 080°07'0 0.0
2017-Nov-18 12:19N 26°05' W 080°07'0 0.0
2017-Nov-18 11:52N 26°05' W 080°07'0 0.0
2017-Nov-18 11:25N 26°05' W 080°07'0 0.0
2017-Nov-18 10:52N 26°05' W 080°07'1 1.9
2017-Nov-18 10:30N 26°06' W 080°07'4 8.4
2017-Nov-18 10:00N 26°05' W 080°02'816.1
2017-Nov-18 09:30N 25°57' W 079°60'816.0
2017-Nov-18 09:00N 25°49' W 079°59'918.0
2017-Nov-18 08:30N 25°41' W 079°57'1018.9
2017-Nov-18 08:00N 25°31' W 079°56'  

Dump ship's entire track history